createdAt,value
2023-03-04T00:00:50.662Z,24.30
2023-03-04T00:01:50.658Z,24.40
2023-03-04T00:02:50.728Z,24.50
2023-03-04T00:03:50.600Z,24.90
2023-03-04T00:04:50.593Z,24.90
2023-03-04T00:05:50.666Z,24.80
2023-03-04T00:06:50.620Z,24.90
2023-03-04T00:07:50.579Z,25.00
2023-03-04T00:08:50.640Z,24.80
2023-03-04T00:09:50.561Z,24.70
2023-03-04T00:10:50.634Z,24.60
2023-03-04T00:11:50.544Z,24.50
2023-03-04T00:12:50.538Z,24.20
2023-03-04T00:13:50.536Z,24.10
2023-03-04T00:14:50.519Z,24.20
2023-03-04T00:15:50.587Z,23.20
2023-03-04T00:16:50.554Z,23.90
2023-03-04T00:17:50.520Z,24.50
2023-03-04T00:18:50.502Z,24.40
2023-03-04T00:19:50.488Z,24.00
2023-03-04T00:20:50.534Z,23.60
2023-03-04T00:21:50.498Z,23.70
2023-03-04T00:22:50.465Z,24.80
2023-03-04T00:23:50.490Z,24.70
2023-03-04T00:24:50.451Z,24.70
2023-03-04T00:25:50.473Z,24.40
2023-03-04T00:26:50.439Z,24.80
2023-03-04T00:27:50.462Z,23.50
2023-03-04T00:28:50.420Z,23.00
2023-03-04T00:29:50.445Z,23.50
2023-03-04T00:30:50.425Z,22.40
2023-03-04T00:31:50.504Z,22.10
2023-03-04T00:32:50.424Z,22.10
2023-03-04T00:33:50.404Z,23.10
2023-03-04T00:34:50.403Z,21.70
2023-03-04T00:35:50.447Z,22.10
2023-03-04T00:36:50.339Z,22.50
2023-03-04T00:37:51.366Z,21.60
2023-03-04T00:38:50.332Z,21.40
2023-03-04T00:39:50.331Z,21.80
2023-03-04T00:40:50.426Z,22.20
2023-03-04T00:41:50.341Z,21.80
2023-03-04T00:42:50.320Z,22.40
2023-03-04T00:43:50.313Z,23.60
2023-03-04T00:44:50.319Z,24.00
2023-03-04T00:45:50.409Z,22.50
2023-03-04T00:46:50.290Z,23.20
2023-03-04T00:47:50.267Z,22.40
2023-03-04T00:48:50.277Z,22.80
2023-03-04T00:49:50.348Z,22.10
2023-03-04T00:50:50.259Z,23.30
2023-03-04T00:51:50.288Z,21.60
2023-03-04T00:52:50.270Z,21.90
2023-03-04T00:53:50.259Z,21.60
2023-03-04T00:54:50.219Z,22.30
2023-03-04T00:55:50.212Z,22.00
2023-03-04T00:56:50.242Z,22.70
2023-03-04T00:57:50.192Z,22.00
2023-03-04T00:58:50.220Z,21.90
2023-03-04T00:59:50.202Z,21.50
2023-03-04T01:00:50.173Z,21.80
2023-03-04T01:01:50.236Z,21.70
2023-03-04T01:02:50.187Z,22.20
2023-03-04T01:03:50.186Z,23.60
2023-03-04T01:04:50.146Z,23.10
2023-03-04T01:05:50.128Z,23.30
2023-03-04T01:06:50.192Z,24.70
2023-03-04T01:07:50.126Z,23.10
2023-03-04T01:08:50.129Z,23.60
2023-03-04T01:09:50.145Z,23.40
2023-03-04T01:10:50.111Z,24.90
2023-03-04T01:11:50.124Z,24.20
2023-03-04T01:12:50.079Z,23.90
2023-03-04T01:13:50.181Z,24.00
2023-03-04T01:14:50.080Z,24.40
2023-03-04T01:15:50.083Z,25.10
2023-03-04T01:16:50.156Z,24.20
2023-03-04T01:17:50.113Z,25.30
2023-03-04T01:18:50.024Z,25.10
2023-03-04T01:19:50.030Z,26.20
2023-03-04T01:20:50.090Z,25.40
2023-03-04T01:21:50.143Z,25.40
2023-03-04T01:22:50.014Z,26.00
2023-03-04T01:23:50.038Z,25.80
2023-03-04T01:24:50.023Z,25.00
2023-03-04T01:25:50.029Z,24.30
2023-03-04T01:26:49.986Z,24.80
2023-03-04T01:27:49.984Z,24.50
2023-03-04T01:28:49.989Z,24.30
2023-03-04T01:29:49.956Z,25.40
2023-03-04T01:30:49.967Z,25.60
2023-03-04T01:31:49.990Z,25.40
2023-03-04T01:32:49.932Z,25.90
2023-03-04T01:33:49.928Z,25.10
2023-03-04T01:34:49.925Z,24.80
2023-03-04T01:35:49.946Z,25.70
2023-03-04T01:36:49.925Z,27.00
2023-03-04T01:37:49.892Z,29.40
2023-03-04T01:38:49.883Z,29.70
2023-03-04T01:39:49.879Z,28.20
2023-03-04T01:40:49.867Z,27.90
2023-03-04T01:41:49.908Z,27.00
2023-03-04T01:42:49.875Z,26.50
2023-03-04T01:43:49.839Z,26.60
2023-03-04T01:44:49.865Z,26.90
2023-03-04T01:45:49.943Z,27.10
2023-03-04T01:46:49.870Z,26.40
2023-03-04T01:47:49.844Z,26.70
2023-03-04T01:48:49.818Z,25.60
2023-03-04T01:49:49.862Z,25.80
2023-03-04T01:50:49.800Z,26.60
2023-03-04T01:51:49.826Z,26.00
2023-03-04T01:52:49.777Z,25.20
2023-03-04T01:53:49.770Z,25.30
2023-03-04T01:54:49.771Z,25.70
2023-03-04T01:55:49.795Z,25.70
2023-03-04T01:56:49.820Z,26.10
2023-03-04T01:57:49.786Z,26.30
2023-03-04T01:58:50.761Z,27.10
2023-03-04T01:59:49.728Z,25.60
2023-03-04T02:00:49.736Z,27.50
2023-03-04T02:01:49.804Z,29.50
2023-03-04T02:02:49.710Z,28.90
2023-03-04T02:03:49.769Z,30.10
2023-03-04T02:04:49.731Z,29.40
2023-03-04T02:05:49.723Z,28.50
2023-03-04T02:06:49.766Z,27.70
2023-03-04T02:07:49.683Z,27.10
2023-03-04T02:08:49.667Z,27.70
2023-03-04T02:09:49.660Z,27.30
2023-03-04T02:10:49.704Z,27.90
2023-03-04T02:11:49.682Z,27.60
2023-03-04T02:12:49.626Z,26.90
2023-03-04T02:13:49.625Z,24.90
2023-03-04T02:14:49.633Z,24.50
2023-03-04T02:15:49.701Z,24.40
2023-03-04T02:16:49.627Z,24.50
2023-03-04T02:17:49.594Z,27.40
2023-03-04T02:18:49.586Z,29.30
2023-03-04T02:19:49.566Z,29.10
2023-03-04T02:20:49.581Z,28.40
2023-03-04T02:21:49.591Z,26.30
2023-03-04T02:22:49.562Z,26.40
2023-03-04T02:23:49.548Z,25.60
2023-03-04T02:24:49.560Z,25.90
2023-03-04T02:25:49.553Z,26.10
2023-03-04T02:26:49.591Z,26.20
2023-03-04T02:27:49.564Z,27.00
2023-03-04T02:28:49.524Z,25.50
2023-03-04T02:29:49.488Z,25.10
2023-03-04T02:30:49.534Z,25.30
2023-03-04T02:31:49.520Z,26.30
2023-03-04T02:32:49.461Z,26.00
2023-03-04T02:33:50.495Z,27.70
2023-03-04T02:34:49.484Z,27.00
2023-03-04T02:35:49.531Z,28.00
2023-03-04T02:36:49.469Z,28.10
2023-03-04T02:37:49.447Z,26.50
2023-03-04T02:38:49.426Z,25.80
2023-03-04T02:39:49.471Z,25.50
2023-03-04T02:40:49.526Z,24.50
2023-03-04T02:41:49.505Z,25.70
2023-03-04T02:42:49.448Z,23.50
2023-03-04T02:43:49.398Z,23.30
2023-03-04T02:44:49.434Z,21.50
2023-03-04T02:45:49.409Z,20.30
2023-03-04T02:46:49.485Z,20.90
2023-03-04T02:47:49.441Z,22.00
2023-03-04T02:48:49.419Z,21.90
2023-03-04T02:49:49.353Z,21.40
2023-03-04T02:50:49.347Z,21.40
2023-03-04T02:51:49.340Z,21.20
2023-03-04T02:52:49.378Z,20.10
2023-03-04T02:53:49.340Z,20.40
2023-03-04T02:54:49.347Z,19.40
2023-03-04T02:55:49.322Z,20.30
2023-03-04T02:56:49.307Z,20.20
2023-03-04T02:57:49.317Z,19.10
2023-03-04T02:58:49.281Z,17.70
2023-03-04T02:59:49.356Z,18.00
2023-03-04T03:00:49.290Z,18.90
2023-03-04T03:01:49.338Z,19.20
2023-03-04T03:02:49.343Z,20.00
2023-03-04T03:03:49.275Z,19.50
2023-03-04T03:04:49.281Z,19.80
2023-03-04T03:05:49.237Z,18.90
2023-03-04T03:06:49.221Z,19.70
2023-03-04T03:07:49.244Z,20.00
2023-03-04T03:08:49.269Z,20.00
2023-03-04T03:09:49.230Z,20.30
2023-03-04T03:10:50.229Z,19.40
2023-03-04T03:11:49.211Z,20.70
2023-03-04T03:12:49.215Z,20.40
2023-03-04T03:13:49.225Z,20.20
2023-03-04T03:14:49.222Z,20.90
2023-03-04T03:15:50.222Z,20.30
2023-03-04T03:16:50.205Z,20.90
2023-03-04T03:17:49.202Z,20.70
2023-03-04T03:18:49.170Z,20.00
2023-03-04T03:19:49.139Z,20.30
2023-03-04T03:20:49.143Z,18.50
2023-03-04T03:21:49.175Z,18.50
2023-03-04T03:22:49.147Z,19.30
2023-03-04T03:23:49.111Z,18.90
2023-03-04T03:24:49.136Z,18.70
2023-03-04T03:25:49.121Z,19.30
2023-03-04T03:26:49.098Z,19.60
2023-03-04T03:27:49.133Z,18.80
2023-03-04T03:28:49.082Z,19.40
2023-03-04T03:29:49.083Z,19.50
2023-03-04T03:30:49.085Z,20.00
2023-03-04T03:31:49.113Z,19.30
2023-03-04T03:32:49.083Z,19.20
2023-03-04T03:33:49.017Z,19.20
2023-03-04T03:34:49.041Z,19.40
2023-03-04T03:35:49.052Z,19.20
2023-03-04T03:36:49.030Z,19.10
2023-03-04T03:37:49.047Z,19.10
2023-03-04T03:38:48.994Z,18.40
2023-03-04T03:39:49.724Z,18.10
2023-03-04T03:40:48.978Z,18.50
2023-03-04T03:41:48.985Z,18.00
2023-03-04T03:42:49.091Z,17.20
2023-03-04T03:43:48.946Z,18.20
2023-03-04T03:44:48.942Z,17.40
2023-03-04T03:45:48.955Z,16.60
2023-03-04T03:46:48.941Z,17.00
2023-03-04T03:47:48.962Z,16.60
2023-03-04T03:48:48.901Z,16.40
2023-03-04T03:49:48.923Z,17.50
2023-03-04T03:50:48.878Z,17.90
2023-03-04T03:51:48.952Z,16.90
2023-03-04T03:52:48.967Z,16.90
2023-03-04T03:53:48.862Z,16.60
2023-03-04T03:54:48.893Z,16.40
2023-03-04T03:55:48.869Z,15.70
2023-03-04T03:56:48.853Z,15.70
2023-03-04T03:57:48.894Z,15.80
2023-03-04T03:58:48.822Z,15.80
2023-03-04T03:59:48.821Z,15.00
2023-03-04T04:00:48.814Z,15.30
2023-03-04T04:01:48.942Z,14.10
2023-03-04T04:02:48.977Z,14.20
2023-03-04T04:03:48.793Z,14.20
2023-03-04T04:04:48.781Z,14.80
2023-03-04T04:05:48.768Z,14.00
2023-03-04T04:06:48.769Z,13.80
2023-03-04T04:07:48.798Z,14.20
2023-03-04T04:08:48.827Z,14.10
2023-03-04T04:09:48.741Z,14.20
2023-03-04T04:10:48.746Z,13.90
2023-03-04T04:11:48.796Z,14.40
2023-03-04T04:12:48.948Z,13.30
2023-03-04T04:13:48.717Z,14.10
2023-03-04T04:14:48.719Z,13.00
2023-03-04T04:15:48.698Z,12.80
2023-03-04T04:16:48.792Z,12.80
2023-03-04T04:17:48.731Z,13.00
2023-03-04T04:18:49.690Z,13.20
2023-03-04T04:19:48.674Z,13.70
2023-03-04T04:20:48.685Z,12.90
2023-03-04T04:21:48.713Z,12.60
2023-03-04T04:22:48.674Z,12.40
2023-03-04T04:23:48.650Z,12.40
2023-03-04T04:24:48.635Z,11.70
2023-03-04T04:25:48.636Z,12.40
2023-03-04T04:26:48.661Z,12.50
2023-03-04T04:27:48.654Z,12.20
2023-03-04T04:28:48.596Z,11.30
2023-03-04T04:29:48.590Z,11.60
2023-03-04T04:30:48.728Z,11.80
2023-03-04T04:31:48.702Z,11.40
2023-03-04T04:32:48.603Z,11.70
2023-03-04T04:33:48.561Z,11.70
2023-03-04T04:34:48.557Z,12.20
2023-03-04T04:35:48.588Z,12.00
2023-03-04T04:36:48.579Z,12.00
2023-03-04T04:37:48.591Z,11.50
2023-03-04T04:38:48.529Z,11.90
2023-03-04T04:39:48.528Z,11.50
2023-03-04T04:40:48.503Z,11.70
2023-03-04T04:41:48.556Z,10.80
2023-03-04T04:42:48.537Z,11.60
2023-03-04T04:43:48.508Z,10.80
2023-03-04T04:44:48.516Z,10.70
2023-03-04T04:45:48.508Z,10.80
2023-03-04T04:46:48.467Z,11.10
2023-03-04T04:47:49.543Z,11.20
2023-03-04T04:48:48.467Z,11.30
2023-03-04T04:49:48.467Z,10.90
2023-03-04T04:50:48.458Z,11.00
2023-03-04T04:51:48.432Z,10.80
2023-03-04T04:52:48.489Z,11.10
2023-03-04T04:53:48.427Z,10.80
2023-03-04T04:54:48.438Z,11.20
2023-03-04T04:55:48.406Z,12.40
2023-03-04T04:56:48.397Z,12.10
2023-03-04T04:57:48.459Z,12.00
2023-03-04T04:58:48.376Z,11.90
2023-03-04T04:59:48.372Z,11.50
2023-03-04T05:00:48.390Z,12.00
2023-03-04T05:01:48.427Z,11.50
2023-03-04T05:02:48.400Z,12.30
2023-03-04T05:03:48.478Z,12.00
2023-03-04T05:04:48.336Z,11.90
2023-03-04T05:05:48.327Z,12.50
2023-03-04T05:06:48.325Z,12.40
2023-03-04T05:07:48.349Z,12.00
2023-03-04T05:08:48.377Z,12.10
2023-03-04T05:09:48.313Z,12.10
2023-03-04T05:10:48.323Z,12.40
2023-03-04T05:11:48.297Z,11.90
2023-03-04T05:12:48.315Z,12.50
2023-03-04T05:13:49.284Z,12.00
2023-03-04T05:14:48.277Z,12.20
2023-03-04T05:15:48.302Z,11.40
2023-03-04T05:16:48.260Z,12.10
2023-03-04T05:17:48.309Z,12.00
2023-03-04T05:18:48.237Z,11.30
2023-03-04T05:19:48.232Z,11.20
2023-03-04T05:20:48.227Z,11.90
2023-03-04T05:21:48.227Z,11.60
2023-03-04T05:22:48.284Z,11.40
2023-03-04T05:23:48.217Z,11.30
2023-03-04T05:24:48.221Z,11.60
2023-03-04T05:25:48.186Z,11.50
2023-03-04T05:26:48.226Z,12.10
2023-03-04T05:27:48.189Z,11.20
2023-03-04T05:28:48.165Z,11.00
2023-03-04T05:29:48.222Z,11.20
2023-03-04T05:30:48.225Z,11.20
2023-03-04T05:31:48.195Z,11.60
2023-03-04T05:32:48.147Z,11.60
2023-03-04T05:33:48.433Z,11.60
2023-03-04T05:34:48.283Z,10.90
2023-03-04T05:35:48.156Z,11.80
2023-03-04T05:36:48.111Z,12.00
2023-03-04T05:37:48.306Z,12.10
2023-03-04T05:38:48.094Z,11.90
2023-03-04T05:39:48.094Z,11.50
2023-03-04T05:40:48.089Z,11.90
2023-03-04T05:41:48.070Z,11.40
2023-03-04T05:42:48.094Z,11.50
2023-03-04T05:43:48.046Z,10.80
2023-03-04T05:44:48.037Z,10.60
2023-03-04T05:45:48.029Z,10.60
2023-03-04T05:46:48.122Z,10.60
2023-03-04T05:47:48.089Z,11.20
2023-03-04T05:48:48.041Z,10.90
2023-03-04T05:49:48.034Z,10.90
2023-03-04T05:50:47.996Z,11.00
2023-03-04T05:51:48.045Z,10.50
2023-03-04T05:52:48.008Z,10.60
2023-03-04T05:53:48.055Z,9.70
2023-03-04T05:54:47.977Z,10.10
2023-03-04T05:55:48.006Z,10.00
2023-03-04T05:56:47.968Z,10.00
2023-03-04T05:57:47.950Z,10.20
2023-03-04T05:58:47.982Z,10.10
2023-03-04T05:59:47.925Z,10.40
2023-03-04T06:00:48.006Z,9.80
2023-03-04T06:01:47.925Z,9.60
2023-03-04T06:02:47.974Z,9.40
2023-03-04T06:03:48.045Z,9.80
2023-03-04T06:04:47.883Z,9.30
2023-03-04T06:05:47.881Z,9.70
2023-03-04T06:06:47.873Z,9.70
2023-03-04T06:07:47.866Z,9.60
2023-03-04T06:08:47.894Z,9.80
2023-03-04T06:09:47.849Z,9.40
2023-03-04T06:10:47.862Z,9.90
2023-03-04T06:11:47.823Z,10.00
2023-03-04T06:12:47.820Z,9.80
2023-03-04T06:13:47.932Z,9.30
2023-03-04T06:14:47.822Z,9.70
2023-03-04T06:15:47.805Z,9.40
2023-03-04T06:16:47.784Z,9.80
2023-03-04T06:17:47.846Z,9.20
2023-03-04T06:18:47.836Z,8.80
2023-03-04T06:19:47.767Z,8.90
2023-03-04T06:20:47.771Z,8.50
2023-03-04T06:21:47.765Z,9.20
2023-03-04T06:22:47.755Z,10.10
2023-03-04T06:23:47.792Z,8.80
2023-03-04T06:24:47.745Z,9.20
2023-03-04T06:25:47.766Z,8.70
2023-03-04T06:26:47.730Z,8.90
2023-03-04T06:27:49.740Z,8.70
2023-03-04T06:28:47.718Z,9.20
2023-03-04T06:29:47.716Z,9.10
2023-03-04T06:30:47.990Z,9.10
2023-03-04T06:31:47.849Z,9.20
2023-03-04T06:32:47.704Z,8.80
2023-03-04T06:33:47.688Z,9.30
2023-03-04T06:34:47.663Z,8.90
2023-03-04T06:35:47.732Z,8.90
2023-03-04T06:36:47.693Z,9.30
2023-03-04T06:37:47.689Z,8.80
2023-03-04T06:38:47.679Z,8.70
2023-03-04T06:39:47.645Z,8.90
2023-03-04T06:40:47.616Z,8.50
2023-03-04T06:41:47.597Z,7.80
2023-03-04T06:42:47.657Z,7.50
2023-03-04T06:43:47.617Z,8.30
2023-03-04T06:44:47.578Z,8.20
2023-03-04T06:45:47.586Z,8.70
2023-03-04T06:46:47.575Z,8.50
2023-03-04T06:47:47.562Z,8.50
2023-03-04T06:48:47.613Z,8.40
2023-03-04T06:49:47.580Z,8.00
2023-03-04T06:50:47.530Z,8.10
2023-03-04T06:51:47.531Z,8.00
2023-03-04T06:52:47.579Z,8.00
2023-03-04T06:53:47.537Z,8.10
2023-03-04T06:54:47.508Z,7.90
2023-03-04T06:55:47.498Z,7.80
2023-03-04T06:56:47.516Z,7.80
2023-03-04T06:57:48.565Z,7.70
2023-03-04T06:58:48.533Z,7.80
2023-03-04T06:59:47.471Z,8.10
2023-03-04T07:00:47.561Z,7.80
2023-03-04T07:01:47.475Z,7.60
2023-03-04T07:02:47.477Z,8.00
2023-03-04T07:03:47.565Z,7.30
2023-03-04T07:04:47.460Z,8.40
2023-03-04T07:05:47.427Z,7.80
2023-03-04T07:06:47.462Z,8.30
2023-03-04T07:07:47.465Z,7.70
2023-03-04T07:08:47.474Z,8.10
2023-03-04T07:09:47.388Z,8.00
2023-03-04T07:10:47.432Z,7.90
2023-03-04T07:11:48.378Z,7.60
2023-03-04T07:12:47.365Z,7.40
2023-03-04T07:13:47.401Z,7.40
2023-03-04T07:14:47.408Z,7.50
2023-03-04T07:15:47.393Z,7.40
2023-03-04T07:16:47.383Z,7.50
2023-03-04T07:17:47.345Z,7.30
2023-03-04T07:18:47.440Z,7.60
2023-03-04T07:19:47.322Z,7.80
2023-03-04T07:20:47.306Z,7.90
2023-03-04T07:21:47.357Z,8.60
2023-03-04T07:22:47.319Z,8.90
2023-03-04T07:23:47.417Z,8.80
2023-03-04T07:24:47.351Z,8.60
2023-03-04T07:25:47.301Z,7.60
2023-03-04T07:26:47.325Z,7.90
2023-03-04T07:27:47.270Z,7.90
2023-03-04T07:28:47.304Z,7.90
2023-03-04T07:29:47.237Z,8.10
2023-03-04T07:30:47.291Z,7.90
2023-03-04T07:31:47.265Z,7.80
2023-03-04T07:32:47.286Z,8.40
2023-03-04T07:33:47.230Z,8.10
2023-03-04T07:34:47.233Z,8.00
2023-03-04T07:35:47.250Z,8.20
2023-03-04T07:36:47.240Z,8.00
2023-03-04T07:37:47.178Z,8.40
2023-03-04T07:38:47.279Z,8.50
2023-03-04T07:39:47.204Z,8.30
2023-03-04T07:40:47.197Z,8.10
2023-03-04T07:41:47.180Z,8.00
2023-03-04T07:42:47.173Z,8.00
2023-03-04T07:43:47.201Z,12.50
2023-03-04T07:44:47.127Z,10.70
2023-03-04T07:45:47.157Z,11.50
2023-03-04T07:46:47.162Z,11.30
2023-03-04T07:47:47.122Z,10.30
2023-03-04T07:48:47.168Z,9.30
2023-03-04T07:49:47.234Z,8.70
2023-03-04T07:50:47.083Z,7.80
2023-03-04T07:51:47.144Z,8.00
2023-03-04T07:52:47.101Z,7.80
2023-03-04T07:53:47.096Z,7.60
2023-03-04T07:54:47.053Z,7.70
2023-03-04T07:55:47.048Z,7.60
2023-03-04T07:56:47.062Z,7.60
2023-03-04T07:57:47.016Z,7.60
2023-03-04T07:58:47.101Z,8.20
2023-03-04T07:59:47.074Z,8.60
2023-03-04T08:00:47.105Z,8.60
2023-03-04T08:01:47.009Z,8.50
2023-03-04T08:02:47.033Z,8.30
2023-03-04T08:03:48.124Z,7.60
2023-03-04T08:04:47.004Z,7.30
2023-03-04T08:05:47.005Z,7.20
2023-03-04T08:06:46.955Z,9.10
2023-03-04T08:07:46.983Z,7.40
2023-03-04T08:08:46.996Z,7.50
2023-03-04T08:09:47.022Z,7.50
2023-03-04T08:10:46.940Z,6.80
2023-03-04T08:11:46.920Z,8.30
2023-03-04T08:12:46.909Z,12.80
2023-03-04T08:13:46.933Z,8.60
2023-03-04T08:14:46.980Z,7.90
2023-03-04T08:15:46.986Z,7.30
2023-03-04T08:16:46.906Z,7.50
2023-03-04T08:17:46.978Z,8.00
2023-03-04T08:18:46.895Z,8.00
2023-03-04T08:19:46.937Z,7.80
2023-03-04T08:20:46.961Z,7.30
2023-03-04T08:21:46.842Z,8.40
2023-03-04T08:22:46.898Z,9.00
2023-03-04T08:23:46.938Z,8.60
2023-03-04T08:24:46.828Z,7.30
2023-03-04T08:25:46.836Z,8.00
2023-03-04T08:26:46.813Z,7.50
2023-03-04T08:27:47.797Z,7.70
2023-03-04T08:28:46.816Z,7.90
2023-03-04T08:29:46.786Z,7.30
2023-03-04T08:30:46.785Z,7.90
2023-03-04T08:31:48.779Z,7.60
2023-03-04T08:32:47.977Z,7.50
2023-03-04T08:33:46.831Z,7.20
2023-03-04T08:34:46.782Z,6.90
2023-03-04T08:35:46.799Z,7.30
2023-03-04T08:36:46.758Z,7.10
2023-03-04T08:37:46.739Z,6.60
2023-03-04T08:38:46.788Z,7.20
2023-03-04T08:39:46.707Z,7.10
2023-03-04T08:40:46.713Z,7.20
2023-03-04T08:41:46.744Z,7.50
2023-03-04T08:42:46.688Z,7.50
2023-03-04T08:43:46.700Z,8.70
2023-03-04T08:44:46.704Z,6.90
2023-03-04T08:45:46.721Z,7.20
2023-03-04T08:46:46.678Z,7.40
2023-03-04T08:47:46.653Z,7.20
2023-03-04T08:48:46.758Z,7.50
2023-03-04T08:49:46.637Z,6.60
2023-03-04T08:50:46.634Z,6.70
2023-03-04T08:51:46.624Z,6.90
2023-03-04T08:52:46.615Z,6.90
2023-03-04T08:53:46.645Z,7.00
2023-03-04T08:54:46.686Z,6.60
2023-03-04T08:55:46.630Z,6.00
2023-03-04T08:56:46.593Z,7.80
2023-03-04T08:57:46.590Z,10.60
2023-03-04T08:58:46.608Z,10.50
2023-03-04T08:59:46.556Z,9.20
2023-03-04T09:00:46.575Z,8.90
2023-03-04T09:01:46.654Z,7.30
2023-03-04T09:02:46.552Z,8.80
2023-03-04T09:03:46.705Z,7.20
2023-03-04T09:04:46.537Z,12.10
2023-03-04T09:05:46.523Z,11.20
2023-03-04T09:06:46.564Z,10.90
2023-03-04T09:07:46.540Z,6.20
2023-03-04T09:08:46.484Z,5.60
2023-03-04T09:09:46.538Z,5.80
2023-03-04T09:10:46.480Z,5.60
2023-03-04T09:11:46.458Z,5.90
2023-03-04T09:12:46.451Z,6.00
2023-03-04T09:13:46.542Z,6.00
2023-03-04T09:14:46.441Z,5.50
2023-03-04T09:15:46.474Z,5.30
2023-03-04T09:16:46.444Z,5.50
2023-03-04T09:17:46.429Z,4.70
2023-03-04T09:18:46.427Z,4.90
2023-03-04T09:19:46.462Z,5.20
2023-03-04T09:20:46.461Z,5.10
2023-03-04T09:21:46.391Z,5.60
2023-03-04T09:22:46.417Z,5.30
2023-03-04T09:23:46.426Z,5.30
2023-03-04T09:24:46.395Z,5.40
2023-03-04T09:25:46.350Z,5.20
2023-03-04T09:26:46.414Z,5.20
2023-03-04T09:27:46.497Z,5.20
2023-03-04T09:28:46.364Z,5.20
2023-03-04T09:29:46.381Z,4.90
2023-03-04T09:30:46.318Z,4.80
2023-03-04T09:31:46.404Z,5.30
2023-03-04T09:32:46.305Z,4.70
2023-03-04T09:33:46.320Z,5.00
2023-03-04T09:34:46.388Z,4.90
2023-03-04T09:35:46.349Z,4.80
2023-03-04T09:36:46.282Z,5.10
2023-03-04T09:37:46.351Z,5.10
2023-03-04T09:38:46.382Z,4.60
2023-03-04T09:39:46.300Z,4.60
2023-03-04T09:40:46.335Z,4.60
2023-03-04T09:41:46.261Z,4.60
2023-03-04T09:42:47.445Z,4.50
2023-03-04T09:43:47.296Z,4.70
2023-03-04T09:44:46.250Z,4.90
2023-03-04T09:45:46.256Z,4.60
2023-03-04T09:46:46.284Z,4.00
2023-03-04T09:47:46.251Z,4.20
2023-03-04T09:48:46.211Z,3.80
2023-03-04T09:49:46.214Z,4.20
2023-03-04T09:50:46.330Z,4.10
2023-03-04T09:51:46.203Z,4.00
2023-03-04T09:52:46.183Z,4.00
2023-03-04T09:53:46.186Z,4.00
2023-03-04T09:54:46.248Z,4.00
2023-03-04T09:55:46.205Z,4.10
2023-03-04T09:56:46.143Z,4.30
2023-03-04T09:57:46.166Z,4.10
2023-03-04T09:58:46.165Z,3.50
2023-03-04T09:59:46.167Z,4.10
2023-03-04T10:00:46.143Z,3.80
2023-03-04T10:01:46.125Z,3.90
2023-03-04T10:02:46.131Z,4.20
2023-03-04T10:03:46.106Z,4.10
2023-03-04T10:04:46.175Z,4.10
2023-03-04T10:05:46.101Z,4.30
2023-03-04T10:06:46.090Z,4.00
2023-03-04T10:07:46.174Z,3.70
2023-03-04T10:08:46.041Z,3.50
2023-03-04T10:09:46.069Z,3.70
2023-03-04T10:10:46.059Z,3.70
2023-03-04T10:11:46.033Z,3.80
2023-03-04T10:12:46.042Z,3.40
2023-03-04T10:13:46.031Z,3.30
2023-03-04T10:14:46.026Z,3.60
2023-03-04T10:15:46.022Z,3.30
2023-03-04T10:16:45.981Z,3.30
2023-03-04T10:17:46.032Z,3.60
2023-03-04T10:18:45.981Z,4.20
2023-03-04T10:19:46.021Z,3.90
2023-03-04T10:20:46.006Z,3.40
2023-03-04T10:21:45.951Z,3.40
2023-03-04T10:22:45.946Z,3.00
2023-03-04T10:23:45.922Z,3.20
2023-03-04T10:24:45.972Z,3.30
2023-03-04T10:25:45.913Z,3.50
2023-03-04T10:26:45.920Z,3.30
2023-03-04T10:27:45.893Z,3.20
2023-03-04T10:28:45.916Z,3.20
2023-03-04T10:29:48.725Z,3.20
2023-03-04T10:30:45.873Z,3.10
2023-03-04T10:31:45.943Z,3.50
2023-03-04T10:32:45.856Z,3.20
2023-03-04T10:33:45.847Z,3.20
2023-03-04T10:34:45.929Z,3.10
2023-03-04T10:35:45.869Z,3.10
2023-03-04T10:36:45.828Z,2.90
2023-03-04T10:37:45.853Z,3.00
2023-03-04T10:38:45.871Z,2.90
2023-03-04T10:39:45.876Z,3.20
2023-03-04T10:40:46.075Z,2.90
2023-03-04T10:41:46.892Z,3.30
2023-03-04T10:42:45.861Z,3.00
2023-03-04T10:43:45.784Z,3.00
2023-03-04T10:44:45.785Z,3.30
2023-03-04T10:45:45.862Z,2.80
2023-03-04T10:46:45.804Z,3.00
2023-03-04T10:47:45.864Z,3.50
2023-03-04T10:48:45.786Z,3.50
2023-03-04T10:49:45.738Z,3.40
2023-03-04T10:50:45.712Z,3.10
2023-03-04T10:51:45.743Z,2.80
2023-03-04T10:52:45.701Z,2.90
2023-03-04T10:53:45.692Z,3.20
2023-03-04T10:54:45.757Z,3.10
2023-03-04T10:55:45.714Z,3.10
2023-03-04T10:56:45.722Z,3.30
2023-03-04T10:57:45.657Z,6.10
2023-03-04T10:58:45.635Z,4.20
2023-03-04T10:59:45.673Z,4.70
2023-03-04T11:00:45.640Z,3.00
2023-03-04T11:01:45.683Z,3.80
2023-03-04T11:02:45.616Z,4.50
2023-03-04T11:03:45.618Z,3.30
2023-03-04T11:04:45.617Z,3.40
2023-03-04T11:05:45.651Z,3.10
2023-03-04T11:06:45.602Z,3.10
2023-03-04T11:07:55.197Z,2.60
2023-03-04T11:08:47.635Z,2.80
2023-03-04T11:09:45.632Z,4.10
2023-03-04T11:10:45.635Z,4.50
2023-03-04T11:11:45.557Z,3.70
2023-03-04T11:12:45.532Z,3.00
2023-03-04T11:13:45.537Z,2.40
2023-03-04T11:14:45.557Z,2.60
2023-03-04T11:15:45.517Z,3.10
2023-03-04T11:16:45.519Z,3.10
2023-03-04T11:17:45.512Z,3.20
2023-03-04T11:18:45.558Z,3.10
2023-03-04T11:19:45.490Z,3.40
2023-03-04T11:20:45.531Z,3.10
2023-03-04T11:21:45.464Z,2.50
2023-03-04T11:22:45.489Z,2.80
2023-03-04T11:23:45.579Z,2.70
2023-03-04T11:24:45.463Z,2.70
2023-03-04T11:25:45.461Z,2.50
2023-03-04T11:26:45.523Z,2.70
2023-03-04T11:27:45.469Z,2.90
2023-03-04T11:28:45.411Z,2.80
2023-03-04T11:29:45.420Z,4.50
2023-03-04T11:30:45.491Z,3.80
2023-03-04T11:31:45.467Z,3.60
2023-03-04T11:32:45.458Z,3.30
2023-03-04T11:33:45.380Z,6.30
2023-03-04T11:34:45.380Z,4.10
2023-03-04T11:35:45.527Z,4.70
2023-03-04T11:36:45.365Z,10.50
2023-03-04T11:37:45.347Z,7.10
2023-03-04T11:38:45.384Z,10.00
2023-03-04T11:39:45.378Z,8.90
2023-03-04T11:40:45.414Z,13.70
2023-03-04T11:41:45.366Z,9.40
2023-03-04T11:42:45.338Z,10.80
2023-03-04T11:43:45.371Z,5.60
2023-03-04T11:44:45.329Z,6.10
2023-03-04T11:45:45.407Z,4.40
2023-03-04T11:46:45.367Z,3.00
2023-03-04T11:47:45.301Z,2.50
2023-03-04T11:48:45.287Z,2.40
2023-03-04T11:49:45.330Z,1.90
2023-03-04T11:50:45.337Z,2.10
2023-03-04T11:51:45.365Z,2.20
2023-03-04T11:52:45.258Z,2.40
2023-03-04T11:53:45.256Z,2.20
2023-03-04T11:54:45.429Z,2.70
2023-03-04T11:55:45.381Z,2.80
2023-03-04T11:56:45.244Z,3.50
2023-03-04T11:57:45.233Z,2.90
2023-03-04T11:58:46.239Z,2.80
2023-03-04T11:59:45.231Z,2.60
2023-03-04T12:00:45.222Z,3.10
2023-03-04T12:01:45.187Z,4.00
2023-03-04T12:02:45.191Z,3.50
2023-03-04T12:03:45.343Z,2.60
2023-03-04T12:04:45.257Z,3.20
2023-03-04T12:05:45.207Z,4.20
2023-03-04T12:06:45.417Z,3.20
2023-03-04T12:07:45.143Z,3.60
2023-03-04T12:08:45.153Z,7.10
2023-03-04T12:09:45.143Z,5.40
2023-03-04T12:10:45.158Z,4.40
2023-03-04T12:11:45.120Z,3.30
2023-03-04T12:12:45.114Z,3.00
2023-03-04T12:13:45.240Z,3.80
2023-03-04T12:14:45.152Z,4.20
2023-03-04T12:15:45.133Z,3.20
2023-03-04T12:16:45.082Z,3.30
2023-03-04T12:17:45.073Z,3.90
2023-03-04T12:18:45.089Z,3.30
2023-03-04T12:19:45.072Z,2.90
2023-03-04T12:20:45.088Z,2.80
2023-03-04T12:21:45.056Z,2.60
2023-03-04T12:22:45.048Z,3.00
2023-03-04T12:23:45.071Z,3.70
2023-03-04T12:24:45.046Z,3.30
2023-03-04T12:25:45.115Z,3.30
2023-03-04T12:26:45.059Z,3.20
2023-03-04T12:27:46.031Z,3.10
2023-03-04T12:28:45.124Z,2.80
2023-03-04T12:29:45.121Z,2.20
2023-03-04T12:30:45.070Z,2.10
2023-03-04T12:31:45.003Z,2.20
2023-03-04T12:32:45.088Z,2.40
2023-03-04T12:33:45.073Z,2.30
2023-03-04T12:34:44.949Z,2.80
2023-03-04T12:35:45.113Z,2.80
2023-03-04T12:36:44.974Z,2.80
2023-03-04T12:37:44.946Z,3.00
2023-03-04T12:38:44.909Z,2.60
2023-03-04T12:39:44.944Z,2.30
2023-03-04T12:40:44.938Z,2.30
2023-03-04T12:41:44.964Z,2.10
2023-03-04T12:42:44.878Z,4.00
2023-03-04T12:43:44.971Z,2.40
2023-03-04T12:44:44.915Z,2.10
2023-03-04T12:45:44.901Z,2.30
2023-03-04T12:46:44.883Z,2.00
2023-03-04T12:47:44.854Z,2.10
2023-03-04T12:48:44.843Z,2.20
2023-03-04T12:49:44.829Z,1.80
2023-03-04T12:50:44.842Z,1.80
2023-03-04T12:51:44.875Z,1.90
2023-03-04T12:52:44.830Z,1.80
2023-03-04T12:53:44.818Z,1.90
2023-03-04T12:54:44.800Z,1.80
2023-03-04T12:55:44.845Z,1.70
2023-03-04T12:56:44.809Z,1.90
2023-03-04T12:57:44.845Z,1.80
2023-03-04T12:58:44.797Z,2.00
2023-03-04T12:59:44.766Z,2.50
2023-03-04T13:00:44.776Z,2.10
2023-03-04T13:01:44.767Z,2.70
2023-03-04T13:02:44.836Z,1.90
2023-03-04T13:03:44.824Z,1.60
2023-03-04T13:04:44.718Z,1.60
2023-03-04T13:05:44.714Z,1.50